sensor_id;sensor_type;location;lat;lon;timestamp;P1;durP1;ratioP1;P2;durP2;ratioP2
45905;SDS011;31619;49.008;12.106;2023-03-01T00:01:58;15.93;;;13.53;;
45905;SDS011;31619;49.008;12.106;2023-03-01T00:04:23;14.57;;;12.53;;
45905;SDS011;31619;49.008;12.106;2023-03-01T00:06:49;16.50;;;12.23;;
45905;SDS011;31619;49.008;12.106;2023-03-01T00:09:15;16.20;;;12.67;;
45905;SDS011;31619;49.008;12.106;2023-03-01T00:11:41;15.03;;;12.83;;
45905;SDS011;31619;49.008;12.106;2023-03-01T00:14:07;17.70;;;13.20;;
45905;SDS011;31619;49.008;12.106;2023-03-01T00:16:36;17.67;;;13.57;;
45905;SDS011;31619;49.008;12.106;2023-03-01T00:19:07;19.40;;;13.43;;
45905;SDS011;31619;49.008;12.106;2023-03-01T00:21:37;18.47;;;14.20;;
45905;SDS011;31619;49.008;12.106;2023-03-01T00:24:02;16.43;;;13.17;;
45905;SDS011;31619;49.008;12.106;2023-03-01T00:26:28;15.40;;;12.30;;
45905;SDS011;31619;49.008;12.106;2023-03-01T00:28:54;16.53;;;12.73;;
45905;SDS011;31619;49.008;12.106;2023-03-01T00:31:22;20.30;;;14.53;;
45905;SDS011;31619;49.008;12.106;2023-03-01T00:33:52;20.63;;;14.13;;
45905;SDS011;31619;49.008;12.106;2023-03-01T00:36:21;19.53;;;13.53;;
45905;SDS011;31619;49.008;12.106;2023-03-01T00:38:48;19.03;;;13.77;;
45905;SDS011;31619;49.008;12.106;2023-03-01T00:41:14;17.90;;;13.57;;
45905;SDS011;31619;49.008;12.106;2023-03-01T00:43:42;19.87;;;13.53;;
45905;SDS011;31619;49.008;12.106;2023-03-01T00:46:17;18.47;;;14.70;;
45905;SDS011;31619;49.008;12.106;2023-03-01T00:48:44;20.17;;;13.83;;
45905;SDS011;31619;49.008;12.106;2023-03-01T00:53:37;17.97;;;14.03;;
45905;SDS011;31619;49.008;12.106;2023-03-01T00:56:04;17.97;;;14.17;;
45905;SDS011;31619;49.008;12.106;2023-03-01T00:58:30;16.53;;;14.47;;
45905;SDS011;31619;49.008;12.106;2023-03-01T01:00:56;18.90;;;14.10;;
45905;SDS011;31619;49.008;12.106;2023-03-01T01:03:22;17.97;;;14.60;;
45905;SDS011;31619;49.008;12.106;2023-03-01T01:05:49;17.47;;;13.80;;
45905;SDS011;31619;49.008;12.106;2023-03-01T01:08:19;20.33;;;15.73;;
45905;SDS011;31619;49.008;12.106;2023-03-01T01:10:46;21.57;;;16.30;;
45905;SDS011;31619;49.008;12.106;2023-03-01T01:13:12;19.00;;;14.97;;
45905;SDS011;31619;49.008;12.106;2023-03-01T01:15:38;19.40;;;13.73;;
45905;SDS011;31619;49.008;12.106;2023-03-01T01:18:04;19.77;;;15.00;;
45905;SDS011;31619;49.008;12.106;2023-03-01T01:20:30;18.73;;;14.83;;
45905;SDS011;31619;49.008;12.106;2023-03-01T01:22:56;19.63;;;14.00;;
45905;SDS011;31619;49.008;12.106;2023-03-01T01:25:21;21.23;;;14.20;;
45905;SDS011;31619;49.008;12.106;2023-03-01T01:27:50;17.97;;;14.50;;
45905;SDS011;31619;49.008;12.106;2023-03-01T01:30:15;18.43;;;14.47;;
45905;SDS011;31619;49.008;12.106;2023-03-01T01:32:41;21.37;;;15.57;;
45905;SDS011;31619;49.008;12.106;2023-03-01T01:35:07;20.50;;;14.43;;
45905;SDS011;31619;49.008;12.106;2023-03-01T01:37:34;19.07;;;14.27;;
45905;SDS011;31619;49.008;12.106;2023-03-01T01:40:00;18.53;;;14.17;;
45905;SDS011;31619;49.008;12.106;2023-03-01T01:42:28;18.93;;;14.70;;
45905;SDS011;31619;49.008;12.106;2023-03-01T01:47:48;21.63;;;15.97;;
45905;SDS011;31619;49.008;12.106;2023-03-01T01:50:15;20.83;;;14.63;;
45905;SDS011;31619;49.008;12.106;2023-03-01T01:52:43;21.37;;;16.13;;
45905;SDS011;31619;49.008;12.106;2023-03-01T01:55:11;17.73;;;14.93;;
45905;SDS011;31619;49.008;12.106;2023-03-01T01:57:45;20.37;;;15.63;;
45905;SDS011;31619;49.008;12.106;2023-03-01T02:00:16;22.10;;;15.03;;
45905;SDS011;31619;49.008;12.106;2023-03-01T02:02:44;19.10;;;14.13;;
45905;SDS011;31619;49.008;12.106;2023-03-01T02:05:17;16.90;;;13.20;;
45905;SDS011;31619;49.008;12.106;2023-03-01T02:07:45;21.73;;;14.87;;
45905;SDS011;31619;49.008;12.106;2023-03-01T02:10:12;20.40;;;14.70;;
45905;SDS011;31619;49.008;12.106;2023-03-01T02:12:38;20.47;;;15.03;;
45905;SDS011;31619;49.008;12.106;2023-03-01T02:15:04;19.77;;;15.87;;
45905;SDS011;31619;49.008;12.106;2023-03-01T02:17:30;21.53;;;15.30;;
45905;SDS011;31619;49.008;12.106;2023-03-01T02:22:46;24.50;;;15.00;;
45905;SDS011;31619;49.008;12.106;2023-03-01T02:30:16;19.03;;;15.03;;
45905;SDS011;31619;49.008;12.106;2023-03-01T02:32:43;20.10;;;15.03;;
45905;SDS011;31619;49.008;12.106;2023-03-01T02:35:10;20.87;;;15.20;;
45905;SDS011;31619;49.008;12.106;2023-03-01T02:37:39;19.83;;;14.70;;
45905;SDS011;31619;49.008;12.106;2023-03-01T02:40:07;22.47;;;15.00;;
45905;SDS011;31619;49.008;12.106;2023-03-01T02:42:41;18.83;;;14.80;;
45905;SDS011;31619;49.008;12.106;2023-03-01T02:45:14;21.87;;;14.07;;
45905;SDS011;31619;49.008;12.106;2023-03-01T02:47:40;23.27;;;15.83;;
45905;SDS011;31619;49.008;12.106;2023-03-01T02:50:30;20.60;;;14.87;;
45905;SDS011;31619;49.008;12.106;2023-03-01T02:53:00;20.37;;;15.13;;
45905;SDS011;31619;49.008;12.106;2023-03-01T02:55:33;19.70;;;14.73;;
45905;SDS011;31619;49.008;12.106;2023-03-01T02:57:58;18.07;;;14.03;;
45905;SDS011;31619;49.008;12.106;2023-03-01T03:00:33;22.80;;;15.37;;
45905;SDS011;31619;49.008;12.106;2023-03-01T03:03:05;17.60;;;13.30;;
45905;SDS011;31619;49.008;12.106;2023-03-01T03:05:31;19.57;;;14.60;;
45905;SDS011;31619;49.008;12.106;2023-03-01T03:07:58;19.13;;;14.50;;
45905;SDS011;31619;49.008;12.106;2023-03-01T03:10:29;19.27;;;14.90;;
45905;SDS011;31619;49.008;12.106;2023-03-01T03:13:00;18.43;;;14.40;;
45905;SDS011;31619;49.008;12.106;2023-03-01T03:15:28;22.27;;;14.57;;
45905;SDS011;31619;49.008;12.106;2023-03-01T03:17:54;24.93;;;15.93;;
45905;SDS011;31619;49.008;12.106;2023-03-01T03:20:21;20.23;;;14.27;;
45905;SDS011;31619;49.008;12.106;2023-03-01T03:22:50;18.13;;;14.07;;
45905;SDS011;31619;49.008;12.106;2023-03-01T03:25:17;20.53;;;15.10;;
45905;SDS011;31619;49.008;12.106;2023-03-01T03:27:45;18.27;;;13.97;;
45905;SDS011;31619;49.008;12.106;2023-03-01T03:30:13;19.63;;;14.53;;
45905;SDS011;31619;49.008;12.106;2023-03-01T03:32:41;20.90;;;14.80;;
45905;SDS011;31619;49.008;12.106;2023-03-01T03:35:15;18.57;;;13.63;;
45905;SDS011;31619;49.008;12.106;2023-03-01T03:37:41;20.17;;;15.20;;
45905;SDS011;31619;49.008;12.106;2023-03-01T03:40:26;21.07;;;14.97;;
45905;SDS011;31619;49.008;12.106;2023-03-01T03:42:53;20.63;;;15.17;;
45905;SDS011;31619;49.008;12.106;2023-03-01T03:45:19;19.60;;;15.20;;
45905;SDS011;31619;49.008;12.106;2023-03-01T03:47:45;24.73;;;15.47;;
45905;SDS011;31619;49.008;12.106;2023-03-01T03:50:11;18.50;;;14.40;;
45905;SDS011;31619;49.008;12.106;2023-03-01T03:52:38;21.90;;;14.50;;
45905;SDS011;31619;49.008;12.106;2023-03-01T03:55:05;17.80;;;14.17;;
45905;SDS011;31619;49.008;12.106;2023-03-01T03:57:41;20.70;;;15.07;;
45905;SDS011;31619;49.008;12.106;2023-03-01T04:00:10;19.93;;;15.03;;
45905;SDS011;31619;49.008;12.106;2023-03-01T04:02:40;20.50;;;15.07;;
45905;SDS011;31619;49.008;12.106;2023-03-01T04:05:07;21.53;;;16.50;;
45905;SDS011;31619;49.008;12.106;2023-03-01T04:07:34;23.10;;;15.57;;
45905;SDS011;31619;49.008;12.106;2023-03-01T04:10:02;19.17;;;14.27;;
45905;SDS011;31619;49.008;12.106;2023-03-01T04:12:28;22.30;;;15.63;;
45905;SDS011;31619;49.008;12.106;2023-03-01T04:14:54;21.60;;;16.20;;
45905;SDS011;31619;49.008;12.106;2023-03-01T04:17:19;22.60;;;15.43;;
45905;SDS011;31619;49.008;12.106;2023-03-01T04:19:45;20.43;;;14.53;;
45905;SDS011;31619;49.008;12.106;2023-03-01T04:22:13;19.73;;;14.37;;
45905;SDS011;31619;49.008;12.106;2023-03-01T04:24:42;19.53;;;14.80;;
45905;SDS011;31619;49.008;12.106;2023-03-01T04:27:08;24.20;;;16.13;;
45905;SDS011;31619;49.008;12.106;2023-03-01T04:29:34;21.23;;;16.03;;
45905;SDS011;31619;49.008;12.106;2023-03-01T04:31:59;20.03;;;15.00;;
45905;SDS011;31619;49.008;12.106;2023-03-01T04:34:25;19.63;;;14.93;;
45905;SDS011;31619;49.008;12.106;2023-03-01T04:36:54;20.30;;;14.67;;
45905;SDS011;31619;49.008;12.106;2023-03-01T04:39:19;20.33;;;15.67;;
45905;SDS011;31619;49.008;12.106;2023-03-01T04:41:45;21.33;;;16.90;;
45905;SDS011;31619;49.008;12.106;2023-03-01T04:44:11;24.80;;;16.07;;
45905;SDS011;31619;49.008;12.106;2023-03-01T04:46:37;20.00;;;15.23;;
45905;SDS011;31619;49.008;12.106;2023-03-01T04:49:03;22.87;;;15.80;;
45905;SDS011;31619;49.008;12.106;2023-03-01T04:51:30;24.43;;;16.73;;
45905;SDS011;31619;49.008;12.106;2023-03-01T04:53:57;19.63;;;15.30;;
45905;SDS011;31619;49.008;12.106;2023-03-01T04:56:23;23.77;;;16.93;;
45905;SDS011;31619;49.008;12.106;2023-03-01T04:58:48;23.70;;;15.30;;
45905;SDS011;31619;49.008;12.106;2023-03-01T05:01:15;23.07;;;15.77;;
45905;SDS011;31619;49.008;12.106;2023-03-01T05:03:43;23.30;;;15.63;;
45905;SDS011;31619;49.008;12.106;2023-03-01T05:06:10;22.43;;;16.13;;
45905;SDS011;31619;49.008;12.106;2023-03-01T05:08:37;23.23;;;15.47;;
45905;SDS011;31619;49.008;12.106;2023-03-01T05:11:04;22.17;;;15.73;;
45905;SDS011;31619;49.008;12.106;2023-03-01T05:13:30;20.67;;;15.23;;
45905;SDS011;31619;49.008;12.106;2023-03-01T05:15:57;18.73;;;14.10;;
45905;SDS011;31619;49.008;12.106;2023-03-01T05:18:25;22.43;;;16.43;;
45905;SDS011;31619;49.008;12.106;2023-03-01T05:20:55;20.47;;;15.53;;
45905;SDS011;31619;49.008;12.106;2023-03-01T05:23:26;22.13;;;14.37;;
45905;SDS011;31619;49.008;12.106;2023-03-01T05:25:52;19.70;;;15.27;;
45905;SDS011;31619;49.008;12.106;2023-03-01T05:28:18;21.77;;;16.67;;
45905;SDS011;31619;49.008;12.106;2023-03-01T05:30:45;20.53;;;15.60;;
45905;SDS011;31619;49.008;12.106;2023-03-01T05:33:11;20.53;;;15.97;;
45905;SDS011;31619;49.008;12.106;2023-03-01T05:35:40;21.67;;;16.00;;
45905;SDS011;31619;49.008;12.106;2023-03-01T05:38:10;24.87;;;18.03;;
45905;SDS011;31619;49.008;12.106;2023-03-01T05:40:40;21.33;;;15.60;;
45905;SDS011;31619;49.008;12.106;2023-03-01T05:43:06;21.60;;;14.90;;
45905;SDS011;31619;49.008;12.106;2023-03-01T05:45:32;26.53;;;17.70;;
45905;SDS011;31619;49.008;12.106;2023-03-01T05:48:00;20.67;;;15.97;;
45905;SDS011;31619;49.008;12.106;2023-03-01T05:50:26;22.87;;;16.17;;
45905;SDS011;31619;49.008;12.106;2023-03-01T05:52:58;21.40;;;15.07;;
45905;SDS011;31619;49.008;12.106;2023-03-01T05:55:23;22.33;;;16.67;;
45905;SDS011;31619;49.008;12.106;2023-03-01T05:57:49;22.30;;;15.80;;
45905;SDS011;31619;49.008;12.106;2023-03-01T06:00:17;24.00;;;15.90;;
45905;SDS011;31619;49.008;12.106;2023-03-01T06:02:44;21.90;;;15.97;;
45905;SDS011;31619;49.008;12.106;2023-03-01T06:05:11;24.87;;;16.97;;
45905;SDS011;31619;49.008;12.106;2023-03-01T06:07:37;23.50;;;16.77;;
45905;SDS011;31619;49.008;12.106;2023-03-01T06:10:04;22.90;;;17.47;;
45905;SDS011;31619;49.008;12.106;2023-03-01T06:12:34;23.47;;;17.10;;
45905;SDS011;31619;49.008;12.106;2023-03-01T06:15:01;22.97;;;16.63;;
45905;SDS011;31619;49.008;12.106;2023-03-01T06:17:29;28.17;;;18.00;;
45905;SDS011;31619;49.008;12.106;2023-03-01T06:19:56;25.90;;;17.67;;
45905;SDS011;31619;49.008;12.106;2023-03-01T06:22:21;25.07;;;16.93;;
45905;SDS011;31619;49.008;12.106;2023-03-01T06:24:47;22.83;;;16.47;;
45905;SDS011;31619;49.008;12.106;2023-03-01T06:27:12;24.63;;;18.37;;
45905;SDS011;31619;49.008;12.106;2023-03-01T06:29:38;21.87;;;15.83;;
45905;SDS011;31619;49.008;12.106;2023-03-01T06:32:04;23.60;;;17.40;;
45905;SDS011;31619;49.008;12.106;2023-03-01T06:34:29;24.03;;;17.90;;
45905;SDS011;31619;49.008;12.106;2023-03-01T06:36:55;24.47;;;16.73;;
45905;SDS011;31619;49.008;12.106;2023-03-01T06:39:21;24.07;;;17.37;;
45905;SDS011;31619;49.008;12.106;2023-03-01T06:41:46;21.33;;;16.90;;
45905;SDS011;31619;49.008;12.106;2023-03-01T06:44:12;21.97;;;16.23;;
45905;SDS011;31619;49.008;12.106;2023-03-01T06:46:38;23.80;;;16.93;;
45905;SDS011;31619;49.008;12.106;2023-03-01T06:49:05;20.50;;;15.40;;
45905;SDS011;31619;49.008;12.106;2023-03-01T06:51:34;23.10;;;17.03;;
45905;SDS011;31619;49.008;12.106;2023-03-01T06:54:05;23.10;;;17.23;;
45905;SDS011;31619;49.008;12.106;2023-03-01T06:56:31;23.60;;;17.27;;
45905;SDS011;31619;49.008;12.106;2023-03-01T06:58:57;23.53;;;16.50;;
45905;SDS011;31619;49.008;12.106;2023-03-01T07:01:23;26.67;;;16.80;;
45905;SDS011;31619;49.008;12.106;2023-03-01T07:03:48;22.13;;;16.63;;
45905;SDS011;31619;49.008;12.106;2023-03-01T07:06:14;24.00;;;16.90;;
45905;SDS011;31619;49.008;12.106;2023-03-01T07:08:40;23.97;;;16.73;;
45905;SDS011;31619;49.008;12.106;2023-03-01T07:11:05;24.03;;;16.10;;
45905;SDS011;31619;49.008;12.106;2023-03-01T07:13:32;22.80;;;15.70;;
45905;SDS011;31619;49.008;12.106;2023-03-01T07:15:57;21.23;;;15.43;;
45905;SDS011;31619;49.008;12.106;2023-03-01T07:18:23;24.67;;;17.50;;
45905;SDS011;31619;49.008;12.106;2023-03-01T07:20:49;22.00;;;16.00;;
45905;SDS011;31619;49.008;12.106;2023-03-01T07:23:14;20.53;;;15.40;;
45905;SDS011;31619;49.008;12.106;2023-03-01T07:25:40;24.90;;;17.30;;
45905;SDS011;31619;49.008;12.106;2023-03-01T07:28:06;25.33;;;15.80;;
45905;SDS011;31619;49.008;12.106;2023-03-01T07:30:31;23.00;;;16.70;;
45905;SDS011;31619;49.008;12.106;2023-03-01T07:32:57;24.20;;;16.97;;
45905;SDS011;31619;49.008;12.106;2023-03-01T07:35:24;25.80;;;17.43;;
45905;SDS011;31619;49.008;12.106;2023-03-01T07:37:51;23.70;;;17.13;;
45905;SDS011;31619;49.008;12.106;2023-03-01T07:40:17;21.40;;;16.47;;
45905;SDS011;31619;49.008;12.106;2023-03-01T07:42:43;25.23;;;17.10;;
45905;SDS011;31619;49.008;12.106;2023-03-01T07:45:09;21.23;;;16.33;;
45905;SDS011;31619;49.008;12.106;2023-03-01T07:47:35;21.97;;;16.33;;
45905;SDS011;31619;49.008;12.106;2023-03-01T07:50:01;19.30;;;14.57;;
45905;SDS011;31619;49.008;12.106;2023-03-01T07:52:27;19.53;;;15.73;;
45905;SDS011;31619;49.008;12.106;2023-03-01T07:54:53;21.07;;;15.20;;
45905;SDS011;31619;49.008;12.106;2023-03-01T07:57:18;24.93;;;15.97;;
45905;SDS011;31619;49.008;12.106;2023-03-01T07:59:44;22.63;;;15.80;;
45905;SDS011;31619;49.008;12.106;2023-03-01T08:02:10;21.60;;;14.77;;
45905;SDS011;31619;49.008;12.106;2023-03-01T08:04:36;19.27;;;14.77;;
45905;SDS011;31619;49.008;12.106;2023-03-01T08:07:04;22.50;;;15.73;;
45905;SDS011;31619;49.008;12.106;2023-03-01T08:09:30;22.57;;;15.43;;
45905;SDS011;31619;49.008;12.106;2023-03-01T08:11:57;17.77;;;15.13;;
45905;SDS011;31619;49.008;12.106;2023-03-01T08:14:24;21.47;;;15.13;;
45905;SDS011;31619;49.008;12.106;2023-03-01T08:16:50;25.87;;;15.60;;
45905;SDS011;31619;49.008;12.106;2023-03-01T08:19:16;23.43;;;16.40;;
45905;SDS011;31619;49.008;12.106;2023-03-01T08:21:42;20.23;;;15.77;;
45905;SDS011;31619;49.008;12.106;2023-03-01T08:24:07;23.30;;;15.77;;
45905;SDS011;31619;49.008;12.106;2023-03-01T08:26:35;23.13;;;16.80;;
45905;SDS011;31619;49.008;12.106;2023-03-01T08:29:01;17.77;;;14.50;;
45905;SDS011;31619;49.008;12.106;2023-03-01T08:31:32;18.37;;;14.73;;
45905;SDS011;31619;49.008;12.106;2023-03-01T08:34:04;21.20;;;15.87;;
45905;SDS011;31619;49.008;12.106;2023-03-01T08:36:34;18.07;;;14.90;;
45905;SDS011;31619;49.008;12.106;2023-03-01T08:39:02;19.33;;;15.33;;
45905;SDS011;31619;49.008;12.106;2023-03-01T08:41:28;26.13;;;15.67;;
45905;SDS011;31619;49.008;12.106;2023-03-01T08:43:54;22.90;;;16.07;;
45905;SDS011;31619;49.008;12.106;2023-03-01T08:46:24;20.37;;;15.73;;
45905;SDS011;31619;49.008;12.106;2023-03-01T08:48:53;23.47;;;18.20;;
45905;SDS011;31619;49.008;12.106;2023-03-01T08:51:20;22.63;;;16.43;;
45905;SDS011;31619;49.008;12.106;2023-03-01T08:53:47;19.80;;;15.00;;
45905;SDS011;31619;49.008;12.106;2023-03-01T08:56:13;19.00;;;15.03;;
45905;SDS011;31619;49.008;12.106;2023-03-01T08:58:39;19.77;;;15.23;;
45905;SDS011;31619;49.008;12.106;2023-03-01T09:01:11;20.10;;;16.17;;
45905;SDS011;31619;49.008;12.106;2023-03-01T09:03:39;20.35;;;15.25;;
45905;SDS011;31619;49.008;12.106;2023-03-01T09:06:06;21.73;;;16.30;;
45905;SDS011;31619;49.008;12.106;2023-03-01T09:08:39;22.60;;;15.10;;
45905;SDS011;31619;49.008;12.106;2023-03-01T09:11:06;19.45;;;15.70;;
45905;SDS011;31619;49.008;12.106;2023-03-01T09:13:34;19.92;;;15.65;;
45905;SDS011;31619;49.008;12.106;2023-03-01T09:16:03;21.70;;;15.13;;
45905;SDS011;31619;49.008;12.106;2023-03-01T09:18:30;18.38;;;14.38;;
45905;SDS011;31619;49.008;12.106;2023-03-01T09:21:03;18.48;;;14.10;;
45905;SDS011;31619;49.008;12.106;2023-03-01T09:23:34;21.20;;;15.43;;
45905;SDS011;31619;49.008;12.106;2023-03-01T09:26:04;20.17;;;14.93;;
45905;SDS011;31619;49.008;12.106;2023-03-01T09:28:34;17.38;;;14.35;;
45905;SDS011;31619;49.008;12.106;2023-03-01T09:31:01;19.25;;;14.55;;
45905;SDS011;31619;49.008;12.106;2023-03-01T09:33:28;22.27;;;15.63;;
45905;SDS011;31619;49.008;12.106;2023-03-01T09:36:04;17.23;;;13.70;;
45905;SDS011;31619;49.008;12.106;2023-03-01T09:38:32;16.52;;;14.65;;
45905;SDS011;31619;49.008;12.106;2023-03-01T09:40:58;14.75;;;13.13;;
45905;SDS011;31619;49.008;12.106;2023-03-01T09:46:10;14.57;;;12.77;;
45905;SDS011;31619;49.008;12.106;2023-03-01T09:48:42;15.02;;;12.95;;
45905;SDS011;31619;49.008;12.106;2023-03-01T09:51:18;15.55;;;13.07;;
45905;SDS011;31619;49.008;12.106;2023-03-01T09:53:48;14.38;;;12.55;;
45905;SDS011;31619;49.008;12.106;2023-03-01T09:56:33;15.00;;;13.40;;
45905;SDS011;31619;49.008;12.106;2023-03-01T10:04:56;14.55;;;13.05;;
45905;SDS011;31619;49.008;12.106;2023-03-01T10:07:55;14.88;;;13.27;;
45905;SDS011;31619;49.008;12.106;2023-03-01T10:10:37;16.35;;;14.63;;
45905;SDS011;31619;49.008;12.106;2023-03-01T10:13:27;15.57;;;13.57;;
45905;SDS011;31619;49.008;12.106;2023-03-01T10:19:02;14.60;;;12.95;;
45905;SDS011;31619;49.008;12.106;2023-03-01T10:21:30;13.07;;;11.82;;
45905;SDS011;31619;49.008;12.106;2023-03-01T10:23:59;14.45;;;13.05;;
45905;SDS011;31619;49.008;12.106;2023-03-01T10:26:57;14.23;;;12.73;;
45905;SDS011;31619;49.008;12.106;2023-03-01T10:29:31;14.13;;;12.70;;
45905;SDS011;31619;49.008;12.106;2023-03-01T10:32:14;13.70;;;12.30;;
45905;SDS011;31619;49.008;12.106;2023-03-01T10:34:40;14.65;;;13.25;;
45905;SDS011;31619;49.008;12.106;2023-03-01T10:39:37;14.40;;;12.52;;
45905;SDS011;31619;49.008;12.106;2023-03-01T10:42:28;13.27;;;12.07;;
45905;SDS011;31619;49.008;12.106;2023-03-01T10:44:56;12.80;;;11.55;;
45905;SDS011;31619;49.008;12.106;2023-03-01T10:47:23;14.77;;;13.18;;
45905;SDS011;31619;49.008;12.106;2023-03-01T10:49:51;13.63;;;11.88;;
45905;SDS011;31619;49.008;12.106;2023-03-01T10:52:24;14.65;;;13.23;;
45905;SDS011;31619;49.008;12.106;2023-03-01T10:54:53;14.27;;;12.68;;
45905;SDS011;31619;49.008;12.106;2023-03-01T10:57:38;14.27;;;12.98;;
45905;SDS011;31619;49.008;12.106;2023-03-01T11:00:24;15.57;;;13.63;;
45905;SDS011;31619;49.008;12.106;2023-03-01T11:03:00;13.45;;;12.02;;
45905;SDS011;31619;49.008;12.106;2023-03-01T11:05:28;13.45;;;12.15;;
45905;SDS011;31619;49.008;12.106;2023-03-01T11:07:58;17.70;;;15.48;;
45905;SDS011;31619;49.008;12.106;2023-03-01T11:10:26;12.98;;;11.68;;
45905;SDS011;31619;49.008;12.106;2023-03-01T11:12:56;14.75;;;13.27;;
45905;SDS011;31619;49.008;12.106;2023-03-01T11:16:04;13.15;;;11.80;;
45905;SDS011;31619;49.008;12.106;2023-03-01T11:18:32;14.52;;;13.13;;
45905;SDS011;31619;49.008;12.106;2023-03-01T11:20:59;14.82;;;13.38;;
45905;SDS011;31619;49.008;12.106;2023-03-01T11:23:27;13.45;;;12.10;;
45905;SDS011;31619;49.008;12.106;2023-03-01T11:25:56;13.55;;;12.18;;
45905;SDS011;31619;49.008;12.106;2023-03-01T11:28:28;13.43;;;12.13;;
45905;SDS011;31619;49.008;12.106;2023-03-01T11:33:35;12.65;;;11.48;;
45905;SDS011;31619;49.008;12.106;2023-03-01T11:36:28;11.80;;;10.70;;
45905;SDS011;31619;49.008;12.106;2023-03-01T11:42:05;13.85;;;12.55;;
45905;SDS011;31619;49.008;12.106;2023-03-01T11:44:35;13.38;;;12.18;;
45905;SDS011;31619;49.008;12.106;2023-03-01T12:07:07;12.98;;;11.65;;
45905;SDS011;31619;49.008;12.106;2023-03-01T12:18:30;12.88;;;11.63;;
45905;SDS011;31619;49.008;12.106;2023-03-01T12:21:28;14.48;;;13.07;;
45905;SDS011;31619;49.008;12.106;2023-03-01T12:24:07;13.65;;;12.27;;
45905;SDS011;31619;49.008;12.106;2023-03-01T12:26:46;15.00;;;12.18;;
45905;SDS011;31619;49.008;12.106;2023-03-01T12:29:34;11.98;;;10.77;;
45905;SDS011;31619;49.008;12.106;2023-03-01T12:35:03;12.23;;;11.13;;
45905;SDS011;31619;49.008;12.106;2023-03-01T12:37:48;15.55;;;12.95;;
45905;SDS011;31619;49.008;12.106;2023-03-01T12:43:08;12.18;;;11.05;;
45905;SDS011;31619;49.008;12.106;2023-03-01T12:49:05;12.25;;;11.05;;
45905;SDS011;31619;49.008;12.106;2023-03-01T12:51:48;12.13;;;11.02;;
45905;SDS011;31619;49.008;12.106;2023-03-01T12:54:26;12.95;;;11.85;;
45905;SDS011;31619;49.008;12.106;2023-03-01T12:56:57;13.57;;;12.30;;
45905;SDS011;31619;49.008;12.106;2023-03-01T12:59:35;12.23;;;11.13;;
45905;SDS011;31619;49.008;12.106;2023-03-01T13:02:40;16.52;;;12.25;;
45905;SDS011;31619;49.008;12.106;2023-03-01T13:11:17;15.25;;;12.80;;
45905;SDS011;31619;49.008;12.106;2023-03-01T13:13:45;13.77;;;11.50;;
45905;SDS011;31619;49.008;12.106;2023-03-01T13:19:08;13.90;;;12.57;;
45905;SDS011;31619;49.008;12.106;2023-03-01T13:21:46;13.98;;;12.57;;
45905;SDS011;31619;49.008;12.106;2023-03-01T13:29:48;12.80;;;11.60;;
45905;SDS011;31619;49.008;12.106;2023-03-01T13:32:25;12.57;;;11.48;;
45905;SDS011;31619;49.008;12.106;2023-03-01T13:35:01;13.90;;;12.50;;
45905;SDS011;31619;49.008;12.106;2023-03-01T13:37:46;13.65;;;12.25;;
45905;SDS011;31619;49.008;12.106;2023-03-01T13:42:42;14.18;;;12.48;;
45905;SDS011;31619;49.008;12.106;2023-03-01T13:45:53;13.15;;;11.98;;
45905;SDS011;31619;49.008;12.106;2023-03-01T13:48:01;13.50;;;12.20;;
45905;SDS011;31619;49.008;12.106;2023-03-01T13:50:33;14.07;;;12.57;;
45905;SDS011;31619;49.008;12.106;2023-03-01T13:53:09;13.65;;;11.75;;
45905;SDS011;31619;49.008;12.106;2023-03-01T13:55:42;13.80;;;12.50;;
45905;SDS011;31619;49.008;12.106;2023-03-01T13:58:19;15.23;;;13.00;;
45905;SDS011;31619;49.008;12.106;2023-03-01T14:00:46;13.73;;;12.43;;
45905;SDS011;31619;49.008;12.106;2023-03-01T14:03:15;14.40;;;13.00;;
45905;SDS011;31619;49.008;12.106;2023-03-01T14:05:56;14.45;;;13.05;;
45905;SDS011;31619;49.008;12.106;2023-03-01T14:08:23;13.50;;;12.27;;
45905;SDS011;31619;49.008;12.106;2023-03-01T14:19:28;12.60;;;11.50;;
45905;SDS011;31619;49.008;12.106;2023-03-01T14:22:20;13.13;;;11.82;;
45905;SDS011;31619;49.008;12.106;2023-03-01T14:24:52;13.75;;;12.45;;
45905;SDS011;31619;49.008;12.106;2023-03-01T14:27:23;13.52;;;12.13;;
45905;SDS011;31619;49.008;12.106;2023-03-01T14:30:11;12.60;;;11.30;;
45905;SDS011;31619;49.008;12.106;2023-03-01T14:33:02;12.57;;;11.30;;
45905;SDS011;31619;49.008;12.106;2023-03-01T14:35:32;13.02;;;11.80;;
45905;SDS011;31619;49.008;12.106;2023-03-01T14:38:00;12.65;;;11.48;;
45905;SDS011;31619;49.008;12.106;2023-03-01T14:40:31;12.80;;;11.70;;
45905;SDS011;31619;49.008;12.106;2023-03-01T14:43:00;12.40;;;11.20;;
45905;SDS011;31619;49.008;12.106;2023-03-01T14:45:33;11.80;;;10.63;;
45905;SDS011;31619;49.008;12.106;2023-03-01T14:47:59;11.90;;;10.80;;
45905;SDS011;31619;49.008;12.106;2023-03-01T14:50:28;12.60;;;11.30;;
45905;SDS011;31619;49.008;12.106;2023-03-01T14:52:57;12.50;;;11.35;;
45905;SDS011;31619;49.008;12.106;2023-03-01T14:55:29;14.00;;;12.07;;
45905;SDS011;31619;49.008;12.106;2023-03-01T14:58:00;13.60;;;12.35;;
45905;SDS011;31619;49.008;12.106;2023-03-01T15:00:30;13.70;;;11.32;;
45905;SDS011;31619;49.008;12.106;2023-03-01T15:03:00;13.13;;;11.85;;
45905;SDS011;31619;49.008;12.106;2023-03-01T15:05:38;12.93;;;11.65;;
45905;SDS011;31619;49.008;12.106;2023-03-01T15:08:05;13.80;;;11.70;;
45905;SDS011;31619;49.008;12.106;2023-03-01T15:10:33;13.13;;;12.02;;
45905;SDS011;31619;49.008;12.106;2023-03-01T15:13:10;13.02;;;11.70;;
45905;SDS011;31619;49.008;12.106;2023-03-01T15:15:46;14.85;;;12.18;;
45905;SDS011;31619;49.008;12.106;2023-03-01T15:18:17;12.90;;;11.70;;
45905;SDS011;31619;49.008;12.106;2023-03-01T15:20:49;13.15;;;11.95;;
45905;SDS011;31619;49.008;12.106;2023-03-01T15:25:54;13.75;;;12.45;;
45905;SDS011;31619;49.008;12.106;2023-03-01T15:28:31;13.25;;;12.05;;
45905;SDS011;31619;49.008;12.106;2023-03-01T15:33:43;13.73;;;12.32;;
45905;SDS011;31619;49.008;12.106;2023-03-01T15:37:00;13.43;;;11.70;;
45905;SDS011;31619;49.008;12.106;2023-03-01T15:42:12;13.48;;;12.05;;
45905;SDS011;31619;49.008;12.106;2023-03-01T15:45:08;13.27;;;11.85;;
45905;SDS011;31619;49.008;12.106;2023-03-01T15:47:38;15.38;;;13.27;;
45905;SDS011;31619;49.008;12.106;2023-03-01T15:50:05;14.00;;;12.52;;
45905;SDS011;31619;49.008;12.106;2023-03-01T15:52:42;14.68;;;12.93;;
45905;SDS011;31619;49.008;12.106;2023-03-01T15:55:41;14.43;;;13.02;;
45905;SDS011;31619;49.008;12.106;2023-03-01T15:58:10;13.38;;;11.98;;
45905;SDS011;31619;49.008;12.106;2023-03-01T16:00:39;13.93;;;12.27;;
45905;SDS011;31619;49.008;12.106;2023-03-01T16:03:05;14.88;;;12.30;;
45905;SDS011;31619;49.008;12.106;2023-03-01T16:05:32;14.30;;;12.90;;
45905;SDS011;31619;49.008;12.106;2023-03-01T16:08:02;13.77;;;12.40;;
45905;SDS011;31619;49.008;12.106;2023-03-01T16:10:28;16.42;;;12.98;;